createdAt,value
2023-01-13T00:00:07.086Z,80.78
2023-01-13T00:02:33.960Z,80.94
2023-01-13T00:05:00.918Z,80.31
2023-01-13T00:07:28.001Z,80.19
2023-01-13T00:09:54.944Z,81.11
2023-01-13T00:12:21.676Z,80.52
2023-01-13T00:14:48.474Z,82.84
2023-01-13T00:17:15.119Z,83.00
2023-01-13T00:19:41.821Z,81.18
2023-01-13T00:22:08.723Z,81.56
2023-01-13T00:24:35.339Z,81.45
2023-01-13T00:27:02.098Z,80.65
2023-01-13T00:29:28.858Z,81.16
2023-01-13T00:31:55.831Z,81.18
2023-01-13T00:34:22.938Z,80.74
2023-01-13T00:36:49.693Z,80.42
2023-01-13T00:39:16.528Z,80.19
2023-01-13T00:42:01.838Z,80.55
2023-01-13T00:44:28.991Z,79.75
2023-01-13T00:46:55.670Z,79.64
2023-01-13T00:49:22.745Z,80.36
2023-01-13T00:51:49.618Z,80.04
2023-01-13T00:54:16.438Z,79.98
2023-01-13T00:56:43.085Z,79.62
2023-01-13T00:59:13.841Z,79.69
2023-01-13T01:01:41.709Z,80.25
2023-01-13T01:04:08.853Z,79.78
2023-01-13T01:06:35.749Z,79.25
2023-01-13T01:09:02.628Z,79.80
2023-01-13T01:11:31.704Z,80.99
2023-01-13T01:14:00.518Z,81.31
2023-01-13T01:16:29.963Z,81.27
2023-01-13T01:18:57.371Z,80.80
2023-01-13T01:21:26.247Z,79.90
2023-01-13T01:23:54.001Z,80.21
2023-01-13T01:26:24.965Z,79.98
2023-01-13T01:28:52.236Z,80.21
2023-01-13T01:31:25.270Z,79.77
2023-01-13T01:33:53.601Z,79.63
2023-01-13T01:36:22.698Z,80.56
2023-01-13T01:38:50.580Z,80.33
2023-01-13T01:41:20.238Z,79.73
2023-01-13T01:44:08.173Z,79.23
2023-01-13T01:46:43.412Z,78.43
2023-01-13T01:49:28.856Z,79.07
2023-01-13T01:52:23.548Z,79.68
2023-01-13T01:54:53.223Z,79.13
2023-01-13T01:57:33.132Z,79.63
2023-01-13T02:00:01.316Z,79.11
2023-01-13T02:02:29.870Z,79.56
2023-01-13T02:04:57.275Z,79.48
2023-01-13T02:07:29.867Z,79.45
2023-01-13T02:09:59.299Z,79.54
2023-01-13T02:12:31.951Z,79.27
2023-01-13T02:15:08.961Z,79.18
2023-01-13T02:18:04.496Z,79.33
2023-01-13T02:20:59.746Z,79.82
2023-01-13T02:24:06.310Z,80.52
2023-01-13T02:26:45.102Z,80.44
2023-01-13T02:30:08.197Z,80.08
2023-01-13T02:32:46.595Z,79.90
2023-01-13T02:35:24.808Z,79.66
2023-01-13T02:37:52.577Z,80.03
2023-01-13T02:40:35.761Z,80.34
2023-01-13T02:43:29.086Z,81.32
2023-01-13T02:46:20.732Z,80.28
2023-01-13T02:48:52.804Z,80.53
2023-01-13T02:51:25.360Z,80.31
2023-01-13T02:54:14.039Z,80.65
2023-01-13T02:56:44.706Z,79.93
2023-01-13T02:59:13.269Z,80.10
2023-01-13T03:01:40.883Z,80.26
2023-01-13T03:04:34.856Z,81.13
2023-01-13T03:07:20.354Z,81.10
2023-01-13T03:10:05.685Z,80.47
2023-01-13T03:12:38.348Z,79.84
2023-01-13T03:15:37.253Z,81.11
2023-01-13T03:18:24.654Z,80.29
2023-01-13T03:21:14.714Z,80.45
2023-01-13T03:23:50.835Z,80.89
2023-01-13T03:26:22.458Z,80.92
2023-01-13T03:28:57.296Z,81.32
2023-01-13T03:31:31.524Z,81.36
2023-01-13T03:34:04.168Z,81.56
2023-01-13T03:36:32.788Z,81.61
2023-01-13T03:39:06.536Z,81.69
2023-01-13T03:41:38.337Z,81.16
2023-01-13T03:44:22.809Z,81.66
2023-01-13T03:47:41.441Z,81.37
2023-01-13T03:50:18.791Z,81.19
2023-01-13T03:53:32.884Z,81.71
2023-01-13T03:56:07.743Z,82.67
2023-01-13T03:58:40.128Z,82.06
2023-01-13T04:01:30.526Z,82.06
2023-01-13T04:04:30.339Z,82.45
2023-01-13T04:07:12.928Z,82.69
2023-01-13T04:09:54.778Z,82.41
2023-01-13T04:12:53.931Z,82.69
2023-01-13T04:15:25.941Z,82.36
2023-01-13T04:17:53.972Z,82.98
2023-01-13T04:20:21.299Z,82.95
2023-01-13T04:22:48.147Z,82.43
2023-01-13T04:25:14.987Z,82.32
2023-01-13T04:27:41.919Z,82.07
2023-01-13T04:30:09.462Z,83.18
2023-01-13T04:32:36.068Z,83.23
2023-01-13T04:35:03.963Z,83.62
2023-01-13T04:37:30.851Z,83.91
2023-01-13T04:39:58.557Z,83.61
2023-01-13T04:42:25.358Z,84.83
2023-01-13T04:44:52.024Z,83.92
2023-01-13T04:47:18.791Z,83.65
2023-01-13T04:49:45.525Z,83.67
2023-01-13T04:52:12.193Z,84.42
2023-01-13T04:54:38.918Z,83.62
2023-01-13T04:57:05.531Z,83.90
2023-01-13T04:59:34.494Z,85.79
2023-01-13T05:02:01.762Z,84.70
2023-01-13T05:04:28.749Z,85.70
2023-01-13T05:06:55.563Z,84.39
2023-01-13T05:09:22.277Z,84.18
2023-01-13T05:12:07.766Z,84.34
2023-01-13T05:14:57.650Z,84.33
2023-01-13T05:17:26.375Z,85.62
2023-01-13T05:19:53.077Z,85.75
2023-01-13T05:22:38.458Z,89.21
2023-01-13T05:25:25.085Z,88.31
2023-01-13T05:27:59.871Z,87.77
2023-01-13T05:30:29.529Z,86.76
2023-01-13T05:32:56.746Z,88.35
2023-01-13T05:35:24.884Z,87.26
2023-01-13T05:37:52.051Z,86.28
2023-01-13T05:40:38.196Z,86.65
2023-01-13T05:43:25.301Z,89.20
2023-01-13T05:45:59.746Z,89.01
2023-01-13T05:48:41.082Z,87.86
2023-01-13T05:51:10.989Z,89.92
2023-01-13T05:53:37.809Z,89.06
2023-01-13T05:56:06.357Z,89.72
2023-01-13T05:58:33.082Z,88.62
2023-01-13T06:01:04.381Z,90.62
2023-01-13T06:03:31.396Z,90.41
2023-01-13T06:06:02.402Z,90.32
2023-01-13T06:08:30.101Z,89.86
2023-01-13T06:10:57.559Z,89.50
2023-01-13T06:13:25.543Z,89.36
2023-01-13T06:15:55.661Z,88.97
2023-01-13T06:18:22.521Z,88.24
2023-01-13T06:20:49.664Z,88.02
2023-01-13T06:23:16.551Z,88.41
2023-01-13T06:25:56.648Z,87.87
2023-01-13T06:28:23.367Z,88.37
2023-01-13T06:31:01.656Z,89.22
2023-01-13T06:33:37.921Z,88.19
2023-01-13T06:36:12.572Z,88.65
2023-01-13T06:38:45.422Z,88.38
2023-01-13T06:41:12.459Z,88.43
2023-01-13T06:43:40.100Z,89.19
2023-01-13T06:46:06.849Z,89.61
2023-01-13T06:48:35.613Z,91.66
2023-01-13T06:51:04.294Z,92.55
2023-01-13T06:53:31.697Z,93.04
2023-01-13T06:55:58.417Z,92.58
2023-01-13T06:58:25.229Z,92.55
2023-01-13T07:00:52.220Z,91.09
2023-01-13T07:03:19.879Z,90.73
2023-01-13T07:05:53.273Z,91.25
2023-01-13T07:08:20.018Z,91.47
2023-01-13T07:10:46.942Z,91.07
2023-01-13T07:13:32.111Z,90.68
2023-01-13T07:16:01.744Z,91.48
2023-01-13T07:18:31.622Z,90.56
2023-01-13T07:21:00.796Z,91.65
2023-01-13T07:23:29.506Z,90.56
2023-01-13T07:25:57.540Z,93.24
2023-01-13T07:28:25.560Z,92.72
2023-01-13T07:30:52.477Z,92.06
2023-01-13T07:33:19.555Z,93.37
2023-01-13T07:35:46.922Z,93.75
2023-01-13T07:38:14.233Z,93.53
2023-01-13T07:40:41.135Z,92.04
2023-01-13T07:43:29.806Z,91.55
2023-01-13T07:46:02.451Z,90.95
2023-01-13T07:48:29.827Z,91.57
2023-01-13T07:50:56.563Z,90.34
2023-01-13T07:53:26.029Z,88.87
2023-01-13T07:55:57.139Z,89.37
2023-01-13T07:58:24.763Z,89.36
2023-01-13T08:00:52.429Z,90.84
2023-01-13T08:03:19.435Z,88.77
2023-01-13T08:05:47.476Z,91.82
2023-01-13T08:08:14.635Z,91.43
2023-01-13T08:10:41.580Z,89.84
2023-01-13T08:13:27.023Z,88.07
2023-01-13T08:16:00.489Z,88.06
2023-01-13T08:18:27.327Z,88.66
2023-01-13T08:20:54.663Z,88.71
2023-01-13T08:23:23.121Z,88.64
2023-01-13T08:25:50.479Z,89.70
2023-01-13T08:28:18.291Z,92.17
2023-01-13T08:30:45.157Z,90.32
2023-01-13T08:33:13.290Z,91.09
2023-01-13T08:35:41.764Z,90.03
2023-01-13T08:38:09.200Z,89.65
2023-01-13T08:40:36.463Z,89.47
2023-01-13T08:43:03.584Z,89.47
2023-01-13T08:45:30.473Z,89.78
2023-01-13T08:47:57.613Z,88.18
2023-01-13T08:50:24.279Z,88.66
2023-01-13T08:52:51.143Z,89.56
2023-01-13T08:55:17.885Z,89.23
2023-01-13T08:57:47.114Z,87.98
2023-01-13T09:00:14.697Z,87.46
2023-01-13T09:02:41.524Z,87.63
2023-01-13T09:05:09.412Z,88.56
2023-01-13T09:07:37.925Z,87.57
2023-01-13T09:10:07.425Z,87.88
2023-01-13T09:12:52.611Z,88.31
2023-01-13T09:15:19.463Z,87.56
2023-01-13T09:17:46.446Z,86.27
2023-01-13T09:20:13.925Z,86.67
2023-01-13T09:22:41.525Z,87.26
2023-01-13T09:25:08.864Z,86.37
2023-01-13T09:27:36.163Z,86.82
2023-01-13T09:30:03.207Z,86.50
2023-01-13T09:32:29.996Z,86.35
2023-01-13T09:35:03.228Z,86.08
2023-01-13T09:37:36.102Z,84.60
2023-01-13T09:40:07.137Z,84.37
2023-01-13T09:43:17.507Z,84.59
2023-01-13T09:46:30.692Z,86.06
2023-01-13T09:51:48.937Z,86.96
2023-01-13T09:54:39.652Z,86.51
2023-01-13T09:57:11.675Z,84.79
2023-01-13T09:59:39.735Z,85.94
2023-01-13T10:02:24.394Z,84.42
2023-01-13T10:05:36.578Z,84.31
2023-01-13T10:08:12.127Z,83.49
2023-01-13T10:10:45.564Z,82.62
2023-01-13T10:13:15.481Z,83.28
2023-01-13T10:15:52.094Z,83.83
2023-01-13T10:18:28.179Z,83.55
2023-01-13T10:21:28.071Z,83.60
2023-01-13T10:24:04.545Z,82.87
2023-01-13T10:26:44.871Z,82.43
2023-01-13T10:29:27.607Z,82.31
2023-01-13T10:31:55.700Z,83.10
2023-01-13T10:34:24.229Z,83.21
2023-01-13T10:37:11.543Z,84.03
2023-01-13T10:39:45.024Z,83.39
2023-01-13T10:42:22.302Z,82.18
2023-01-13T10:44:54.715Z,82.44
2023-01-13T10:47:43.013Z,81.80
2023-01-13T10:50:12.467Z,80.97
2023-01-13T10:52:43.570Z,81.83
2023-01-13T10:55:39.197Z,81.54
2023-01-13T10:58:18.663Z,81.52
2023-01-13T11:00:46.256Z,83.44
2023-01-13T11:03:18.834Z,83.88
2023-01-13T11:05:50.082Z,82.04
2023-01-13T11:08:19.871Z,81.47
2023-01-13T11:10:50.289Z,81.60
2023-01-13T11:13:24.090Z,81.82
2023-01-13T11:15:50.959Z,81.50
2023-01-13T11:18:28.364Z,79.93
2023-01-13T11:21:01.692Z,81.89
2023-01-13T11:23:47.590Z,81.58
2023-01-13T11:26:27.373Z,80.87
2023-01-13T11:29:14.098Z,79.40
2023-01-13T11:31:46.616Z,77.59
2023-01-13T11:34:30.022Z,77.42
2023-01-13T11:36:59.656Z,77.39
2023-01-13T11:39:41.205Z,77.30
2023-01-13T11:42:29.406Z,78.81
2023-01-13T11:45:17.041Z,79.99
2023-01-13T11:47:47.595Z,78.59
2023-01-13T11:50:35.629Z,78.12
2023-01-13T11:53:14.544Z,77.02
2023-01-13T11:55:50.942Z,77.86
2023-01-13T12:02:23.527Z,78.11
2023-01-13T12:05:05.187Z,78.49
2023-01-13T12:07:50.813Z,76.78
2023-01-13T12:10:33.759Z,76.35
2023-01-13T12:13:05.805Z,75.55
2023-01-13T12:16:10.603Z,74.23
2023-01-13T12:19:15.956Z,76.02
2023-01-13T12:22:14.524Z,76.55
2023-01-13T12:24:51.923Z,77.97
2023-01-13T12:27:28.303Z,77.85
2023-01-13T12:30:00.434Z,77.99
2023-01-13T12:32:37.372Z,77.25
2023-01-13T12:35:22.317Z,75.89
2023-01-13T12:38:24.484Z,74.98
2023-01-13T12:41:04.988Z,74.85
2023-01-13T12:43:51.037Z,74.19
2023-01-13T12:46:23.532Z,73.86
2023-01-13T12:48:59.706Z,73.73
2023-01-13T12:51:52.177Z,73.49
2023-01-13T12:54:31.081Z,74.13
2023-01-13T12:56:59.234Z,74.16
2023-01-13T12:59:25.887Z,74.29
2023-01-13T13:02:13.086Z,74.13
2023-01-13T13:04:49.677Z,72.87
2023-01-13T13:07:31.257Z,72.93
2023-01-13T13:10:21.341Z,73.84
2023-01-13T13:13:13.957Z,74.83
2023-01-13T13:15:41.637Z,74.62
2023-01-13T13:18:17.386Z,74.26
2023-01-13T13:20:54.674Z,73.85
2023-01-13T13:23:49.801Z,73.48
2023-01-13T13:26:24.356Z,73.67
2023-01-13T13:29:22.174Z,74.65
2023-01-13T13:32:25.574Z,74.44
2023-01-13T13:35:08.031Z,74.89
2023-01-13T13:38:14.821Z,74.21
2023-01-13T13:41:04.433Z,73.87
2023-01-13T13:43:59.924Z,74.42
2023-01-13T13:46:47.322Z,74.23
2023-01-13T13:49:18.557Z,74.91
2023-01-13T13:52:00.438Z,75.00
2023-01-13T13:54:28.024Z,74.75
2023-01-13T13:56:54.941Z,74.39
2023-01-13T13:59:25.473Z,74.65
2023-01-13T14:02:02.280Z,74.78
2023-01-13T14:04:37.506Z,74.91
2023-01-13T14:07:18.110Z,75.44
2023-01-13T14:09:47.509Z,74.48
2023-01-13T14:12:20.885Z,73.41
2023-01-13T14:14:49.483Z,74.23
2023-01-13T14:17:22.318Z,75.23
2023-01-13T14:19:54.228Z,75.12
2023-01-13T14:22:21.017Z,74.54
2023-01-13T14:24:55.365Z,74.46
2023-01-13T14:27:23.998Z,75.07
2023-01-13T14:29:59.744Z,75.64
2023-01-13T14:32:35.338Z,74.76
2023-01-13T14:35:06.133Z,75.34
2023-01-13T14:37:40.032Z,75.58
2023-01-13T14:40:27.290Z,75.26
2023-01-13T14:43:04.620Z,75.93
2023-01-13T14:45:33.247Z,75.22
2023-01-13T14:48:01.756Z,74.91
2023-01-13T14:50:34.205Z,74.66
2023-01-13T14:53:19.695Z,75.76
2023-01-13T14:55:46.347Z,76.18
2023-01-13T14:58:22.166Z,76.33
2023-01-13T15:00:50.055Z,76.58
2023-01-13T15:03:19.834Z,76.18
2023-01-13T15:05:50.083Z,76.84
2023-01-13T15:08:17.492Z,76.17
2023-01-13T15:11:00.370Z,76.42
2023-01-13T15:13:53.388Z,76.78
2023-01-13T15:16:28.028Z,76.45
2023-01-13T15:18:55.834Z,76.78
2023-01-13T15:21:23.413Z,77.39
2023-01-13T15:23:50.825Z,77.43
2023-01-13T15:26:26.677Z,77.17
2023-01-13T15:28:56.693Z,77.20
2023-01-13T15:31:24.809Z,76.88
2023-01-13T15:33:52.031Z,78.03
2023-01-13T15:36:38.183Z,78.03
2023-01-13T15:39:05.201Z,77.04
2023-01-13T15:41:50.729Z,77.84
2023-01-13T15:44:36.181Z,78.52
2023-01-13T15:47:07.444Z,78.43
2023-01-13T15:49:42.197Z,77.94
2023-01-13T15:52:25.141Z,78.36
2023-01-13T15:54:52.793Z,77.85
2023-01-13T15:57:31.266Z,77.80
2023-01-13T16:00:01.008Z,77.85
2023-01-13T16:02:29.989Z,77.99
2023-01-13T16:04:58.298Z,78.92
2023-01-13T16:07:30.369Z,78.58
2023-01-13T16:09:57.916Z,79.22
2023-01-13T16:12:27.187Z,78.52
2023-01-13T16:14:54.344Z,78.90
2023-01-13T16:19:50.718Z,79.88
2023-01-13T16:22:25.884Z,79.36
2023-01-13T16:25:04.304Z,78.74
2023-01-13T16:27:33.904Z,79.29
2023-01-13T16:30:01.496Z,79.92
2023-01-13T16:32:28.182Z,80.11
2023-01-13T16:34:55.081Z,79.77
2023-01-13T16:37:27.483Z,79.50
2023-01-13T16:39:54.909Z,79.68
2023-01-13T16:42:22.033Z,79.66
2023-01-13T16:44:50.135Z,80.21
2023-01-13T16:47:18.597Z,80.82
2023-01-13T16:49:45.832Z,81.27
2023-01-13T16:52:12.722Z,81.62
2023-01-13T16:54:39.913Z,81.83
2023-01-13T16:57:07.977Z,81.02
2023-01-13T16:59:34.709Z,81.29
2023-01-13T17:02:02.830Z,80.80
2023-01-13T17:04:29.663Z,80.41
2023-01-13T17:07:06.989Z,79.91
2023-01-13T17:09:34.264Z,80.13
2023-01-13T17:12:01.873Z,79.83
2023-01-13T17:14:28.821Z,79.29
2023-01-13T17:16:59.694Z,79.47
2023-01-13T17:19:26.770Z,79.71
2023-01-13T17:21:53.527Z,79.65
2023-01-13T17:24:20.698Z,80.41
2023-01-13T17:26:50.147Z,80.07
2023-01-13T17:29:19.435Z,79.58
2023-01-13T17:31:46.538Z,80.05
2023-01-13T17:34:13.615Z,80.89
2023-01-13T17:36:40.855Z,80.69
2023-01-13T17:39:07.668Z,80.09
2023-01-13T17:41:34.421Z,80.02
2023-01-13T17:44:01.094Z,79.88
2023-01-13T17:46:27.856Z,79.69
2023-01-13T17:48:54.865Z,80.07
2023-01-13T17:51:25.732Z,79.20
2023-01-13T17:53:54.151Z,79.85
2023-01-13T17:56:21.566Z,80.10
2023-01-13T17:58:48.395Z,79.63
2023-01-13T18:01:18.730Z,80.32
2023-01-13T18:03:45.718Z,80.76
2023-01-13T18:06:19.390Z,80.65
2023-01-13T18:08:47.237Z,79.88
2023-01-13T18:11:15.785Z,80.58
2023-01-13T18:13:46.212Z,80.42
2023-01-13T18:16:15.311Z,80.28
2023-01-13T18:18:44.503Z,80.36
2023-01-13T18:21:39.402Z,79.93
2023-01-13T18:24:29.465Z,79.95
2023-01-13T18:27:14.812Z,79.95
2023-01-13T18:29:41.755Z,80.74
2023-01-13T18:32:09.105Z,80.41
2023-01-13T18:34:36.518Z,80.94
2023-01-13T18:37:04.285Z,80.64
2023-01-13T18:39:31.061Z,80.42
2023-01-13T18:42:16.837Z,80.49
2023-01-13T18:44:43.917Z,79.98
2023-01-13T18:47:10.791Z,80.50
2023-01-13T18:49:37.607Z,79.61
2023-01-13T18:52:04.792Z,79.48
2023-01-13T18:54:31.581Z,79.90
2023-01-13T18:56:58.591Z,80.32
2023-01-13T18:59:25.380Z,80.03
2023-01-13T19:01:52.464Z,80.25
2023-01-13T19:04:20.583Z,79.79
2023-01-13T19:06:51.210Z,79.51
2023-01-13T19:09:26.256Z,79.33
2023-01-13T19:11:53.663Z,79.65
2023-01-13T19:14:45.035Z,80.10
2023-01-13T19:17:14.613Z,79.55
2023-01-13T19:19:44.096Z,79.26
2023-01-13T19:22:27.391Z,80.58
2023-01-13T19:24:54.610Z,80.20
2023-01-13T19:27:22.101Z,79.46
2023-01-13T19:29:53.818Z,79.82
2023-01-13T19:32:22.396Z,80.01
2023-01-13T19:34:51.397Z,80.27
2023-01-13T19:37:19.261Z,80.13
2023-01-13T19:39:49.311Z,80.10
2023-01-13T19:42:34.598Z,80.31
2023-01-13T19:45:20.000Z,80.48
2023-01-13T19:47:47.087Z,80.22
2023-01-13T19:50:14.756Z,80.00
2023-01-13T19:52:44.562Z,79.94
2023-01-13T19:55:12.652Z,80.10
2023-01-13T19:57:43.686Z,80.16
2023-01-13T20:00:14.157Z,80.17
2023-01-13T20:02:47.850Z,79.90
2023-01-13T20:05:22.510Z,79.65
2023-01-13T20:07:50.927Z,79.94
2023-01-13T20:10:19.366Z,79.99
2023-01-13T20:12:46.454Z,79.95
2023-01-13T20:15:13.229Z,79.92
2023-01-13T20:17:41.594Z,80.40
2023-01-13T20:20:09.860Z,80.39
2023-01-13T20:22:39.012Z,80.44
2023-01-13T20:25:06.761Z,80.50
2023-01-13T20:27:33.541Z,80.48
2023-01-13T20:30:00.369Z,80.96
2023-01-13T20:32:26.960Z,81.20
2023-01-13T20:34:53.671Z,81.31
2023-01-13T20:37:20.421Z,81.84
2023-01-13T20:39:48.144Z,81.99
2023-01-13T20:42:29.984Z,81.34
2023-01-13T20:44:57.886Z,81.33
2023-01-13T20:47:25.782Z,81.22
2023-01-13T20:49:53.618Z,80.85
2023-01-13T20:52:20.675Z,81.50
2023-01-13T20:54:47.513Z,81.49
2023-01-13T20:57:14.435Z,81.68
2023-01-13T20:59:41.237Z,81.48
2023-01-13T21:02:13.261Z,81.24
2023-01-13T21:04:40.669Z,80.90
2023-01-13T21:07:08.015Z,80.84
2023-01-13T21:09:34.965Z,81.02
2023-01-13T21:12:20.350Z,80.49
2023-01-13T21:15:05.503Z,81.08
2023-01-13T21:17:50.659Z,81.21
2023-01-13T21:20:17.736Z,80.58
2023-01-13T21:22:46.849Z,80.31
2023-01-13T21:25:14.750Z,80.70
2023-01-13T21:27:44.174Z,80.62
2023-01-13T21:30:15.555Z,81.00
2023-01-13T21:32:44.296Z,81.09
2023-01-13T21:35:12.472Z,80.69
2023-01-13T21:37:41.737Z,81.29
2023-01-13T21:40:10.432Z,80.99
2023-01-13T21:42:55.585Z,80.71
2023-01-13T21:45:40.860Z,81.08
2023-01-13T21:48:07.667Z,80.24
2023-01-13T21:50:34.839Z,80.52
2023-01-13T21:53:01.701Z,80.66
2023-01-13T21:55:30.728Z,79.47
2023-01-13T21:58:14.332Z,79.74
2023-01-13T22:00:43.525Z,81.14
2023-01-13T22:03:14.806Z,80.05
2023-01-13T22:05:41.900Z,79.95
2023-01-13T22:08:08.710Z,79.88
2023-01-13T22:10:35.856Z,79.75
2023-01-13T22:13:23.512Z,80.25
2023-01-13T22:15:51.584Z,80.35
2023-01-13T22:18:21.009Z,80.35
2023-01-13T22:20:48.862Z,79.48
2023-01-13T22:23:15.531Z,79.73
2023-01-13T22:25:42.143Z,80.30
2023-01-13T22:28:09.474Z,79.64
2023-01-13T22:30:36.790Z,79.99
2023-01-13T22:33:03.931Z,80.88
2023-01-13T22:35:30.899Z,79.93
2023-01-13T22:37:58.794Z,79.26
2023-01-13T22:40:25.672Z,79.37
2023-01-13T22:42:52.418Z,79.34
2023-01-13T22:45:19.242Z,79.06
2023-01-13T22:47:46.248Z,79.37
2023-01-13T22:50:12.958Z,79.33
2023-01-13T22:52:39.727Z,79.29
2023-01-13T22:55:07.156Z,79.47
2023-01-13T22:57:36.695Z,79.67
2023-01-13T23:00:15.109Z,80.38
2023-01-13T23:02:42.684Z,79.64
2023-01-13T23:05:09.687Z,80.23
2023-01-13T23:07:36.467Z,79.84
2023-01-13T23:10:04.522Z,79.37
2023-01-13T23:12:31.347Z,79.94
2023-01-13T23:14:58.078Z,80.11
2023-01-13T23:17:25.259Z,80.94
2023-01-13T23:19:52.162Z,80.63
2023-01-13T23:22:19.122Z,80.10
2023-01-13T23:24:46.188Z,79.48
2023-01-13T23:27:13.267Z,79.60
2023-01-13T23:29:40.079Z,79.60
2023-01-13T23:32:07.179Z,79.40
2023-01-13T23:34:33.879Z,79.71
2023-01-13T23:37:00.754Z,80.68
2023-01-13T23:39:27.473Z,80.14
2023-01-13T23:41:54.886Z,80.10
2023-01-13T23:44:21.765Z,79.47
2023-01-13T23:46:48.796Z,80.09
2023-01-13T23:49:15.500Z,79.63
2023-01-13T23:51:42.378Z,79.51
2023-01-13T23:54:09.017Z,79.56
2023-01-13T23:56:39.501Z,79.48
2023-01-13T23:59:07.098Z,79.57
